createdAt,value
2018-01-15T00:00:33.805Z,-0.90
2018-01-15T00:03:01.995Z,-0.80
2018-01-15T00:05:30.795Z,-0.70
2018-01-15T00:07:58.955Z,-0.80
2018-01-15T00:10:37.129Z,-1.00
2018-01-15T00:13:06.095Z,-1.20
2018-01-15T00:15:34.270Z,-1.20
2018-01-15T00:18:02.426Z,-1.30
2018-01-15T00:20:30.702Z,-1.30
2018-01-15T00:22:58.869Z,-1.30
2018-01-15T00:25:27.800Z,-1.30
2018-01-15T00:27:55.987Z,-1.30
2018-01-15T00:30:25.241Z,-1.20
2018-01-15T00:32:53.428Z,-1.30
2018-01-15T00:35:21.606Z,-1.30
2018-01-15T00:37:49.860Z,-1.30
2018-01-15T00:40:22.025Z,-1.30
2018-01-15T00:42:53.785Z,-1.20
2018-01-15T00:45:21.932Z,-1.20
2018-01-15T00:47:50.948Z,-1.20
2018-01-15T00:50:22.712Z,-1.20
2018-01-15T00:52:50.886Z,-1.20
2018-01-15T00:55:23.364Z,-1.20
2018-01-15T00:57:51.548Z,-1.20
2018-01-15T01:00:22.805Z,-1.20
2018-01-15T01:02:51.890Z,-1.20
2018-01-15T01:05:20.035Z,-1.20
2018-01-15T01:07:48.206Z,-1.20
2018-01-15T01:10:17.305Z,-1.20
2018-01-15T01:12:45.461Z,-1.30
2018-01-15T01:15:14.387Z,-1.30
2018-01-15T01:17:42.551Z,-1.30
2018-01-15T01:20:10.824Z,-1.20
2018-01-15T01:22:38.980Z,-1.20
2018-01-15T01:25:07.907Z,-1.20
2018-01-15T01:27:36.167Z,-1.20
2018-01-15T01:30:05.174Z,-1.20
2018-01-15T01:32:33.327Z,-1.20
2018-01-15T01:35:01.489Z,-1.20
2018-01-15T01:37:29.654Z,-1.30
2018-01-15T01:39:57.869Z,-1.30
2018-01-15T01:42:26.082Z,-1.30
2018-01-15T01:44:54.245Z,-1.30
2018-01-15T01:47:22.397Z,-1.30
2018-01-15T01:49:50.964Z,-1.30
2018-01-15T01:52:19.244Z,-1.40
2018-01-15T01:54:47.409Z,-1.40
2018-01-15T01:57:15.573Z,-1.30
2018-01-15T01:59:43.741Z,-1.30
2018-01-15T02:02:13.024Z,-1.40
2018-01-15T02:04:41.238Z,-1.40
2018-01-15T02:07:09.397Z,-1.40
2018-01-15T02:09:37.555Z,-1.30
2018-01-15T02:12:05.721Z,-1.30
2018-01-15T02:14:33.876Z,-1.30
2018-01-15T02:17:02.033Z,-1.30
2018-01-15T02:19:30.188Z,-1.30
2018-01-15T02:22:05.597Z,-1.40
2018-01-15T02:24:35.271Z,-1.40
2018-01-15T02:27:03.506Z,-1.40
2018-01-15T02:29:31.660Z,-1.40
2018-01-15T02:32:00.609Z,-1.50
2018-01-15T02:34:28.774Z,-1.40
2018-01-15T02:36:56.941Z,-1.40
2018-01-15T02:39:25.115Z,-1.30
2018-01-15T02:41:53.361Z,-1.20
2018-01-15T02:44:21.532Z,-1.20
2018-01-15T02:46:49.696Z,-1.10
2018-01-15T02:49:17.861Z,-1.00
2018-01-15T02:51:46.063Z,-0.90
2018-01-15T02:54:14.250Z,-0.80
2018-01-15T02:56:42.416Z,-0.80
2018-01-15T02:59:10.690Z,-0.80
2018-01-15T03:01:38.977Z,-0.80
2018-01-15T03:04:07.169Z,-0.80
2018-01-15T03:06:35.329Z,-0.80
2018-01-15T03:09:03.528Z,-0.70
2018-01-15T03:11:32.690Z,-0.60
2018-01-15T03:14:00.857Z,-0.60
2018-01-15T03:16:29.021Z,-0.50
2018-01-15T03:18:57.182Z,-0.40
2018-01-15T03:21:25.384Z,-0.50
2018-01-15T03:23:53.550Z,-0.50
2018-01-15T03:26:21.710Z,-0.60
2018-01-15T03:28:49.873Z,-0.70
2018-01-15T03:31:18.083Z,-0.70
2018-01-15T03:33:46.237Z,-0.70
2018-01-15T03:36:15.165Z,-0.60
2018-01-15T03:38:43.326Z,-0.70
2018-01-15T03:41:11.585Z,-0.60
2018-01-15T03:43:39.750Z,-0.60
2018-01-15T03:46:08.677Z,-0.40
2018-01-15T03:48:36.851Z,-0.40
2018-01-15T03:51:05.116Z,-0.30
2018-01-15T03:53:33.265Z,-0.30
2018-01-15T03:56:02.200Z,-0.30
2018-01-15T03:58:30.352Z,-0.30
2018-01-15T04:01:04.433Z,-0.30
2018-01-15T04:03:32.658Z,-0.30
2018-01-15T04:06:00.902Z,-0.40
2018-01-15T04:08:29.069Z,-0.40
2018-01-15T04:10:58.101Z,-0.30
2018-01-15T04:13:27.177Z,-0.30
2018-01-15T04:15:55.349Z,-0.10
2018-01-15T04:18:23.508Z,0.00
2018-01-15T04:20:51.803Z,0.10
2018-01-15T04:23:19.983Z,0.20
2018-01-15T04:25:48.138Z,0.20
2018-01-15T04:28:16.298Z,0.20
2018-01-15T04:30:44.545Z,0.30
2018-01-15T04:33:12.704Z,0.30
2018-01-15T04:35:40.935Z,0.40
2018-01-15T04:38:09.057Z,0.40
2018-01-15T04:40:44.421Z,0.50
2018-01-15T04:43:12.579Z,0.50
2018-01-15T04:45:50.659Z,0.60
2018-01-15T04:48:18.856Z,0.60
2018-01-15T04:50:47.099Z,0.60
2018-01-15T04:53:17.112Z,0.70
2018-01-15T04:55:45.268Z,0.70
2018-01-15T04:58:13.693Z,0.80
2018-01-15T05:00:48.054Z,0.80
2018-01-15T05:03:16.205Z,0.90
2018-01-15T05:05:45.667Z,1.00
2018-01-15T05:08:14.614Z,1.00
2018-01-15T05:10:43.750Z,1.00
2018-01-15T05:13:11.919Z,1.00
2018-01-15T05:15:40.089Z,1.10
2018-01-15T05:18:08.271Z,1.10
2018-01-15T05:20:37.499Z,1.10
2018-01-15T05:23:05.670Z,1.10
2018-01-15T05:25:33.863Z,1.10
2018-01-15T05:28:02.049Z,1.20
2018-01-15T05:30:30.209Z,1.30
2018-01-15T05:32:58.364Z,1.30
2018-01-15T05:35:26.516Z,1.30
2018-01-15T05:37:54.685Z,1.40
2018-01-15T05:40:22.860Z,1.40
2018-01-15T05:42:51.125Z,1.40
2018-01-15T05:45:19.315Z,1.50
2018-01-15T05:47:47.488Z,1.50
2018-01-15T05:50:15.778Z,1.50
2018-01-15T05:52:46.085Z,1.50
2018-01-15T05:55:14.232Z,1.50
2018-01-15T05:57:42.428Z,1.60
2018-01-15T06:00:12.515Z,1.50
2018-01-15T06:02:40.673Z,1.40
2018-01-15T06:05:08.829Z,1.30
2018-01-15T06:07:37.689Z,1.30
2018-01-15T06:10:07.479Z,1.20
2018-01-15T06:12:35.639Z,1.20
2018-01-15T06:15:04.215Z,1.10
2018-01-15T06:17:32.377Z,1.10
2018-01-15T06:20:04.305Z,1.00
2018-01-15T06:22:33.026Z,1.00
2018-01-15T06:25:01.260Z,1.00
2018-01-15T06:27:29.438Z,1.00
2018-01-15T06:30:04.468Z,1.00
2018-01-15T06:32:43.589Z,0.90
2018-01-15T06:35:12.857Z,0.80
2018-01-15T06:37:48.706Z,0.80
2018-01-15T06:40:17.956Z,0.70
2018-01-15T06:42:46.105Z,0.70
2018-01-15T06:45:15.050Z,0.60
2018-01-15T06:47:43.206Z,0.60
2018-01-15T06:50:11.845Z,0.60
2018-01-15T06:52:40.440Z,0.60
2018-01-15T06:55:11.752Z,0.60
2018-01-15T06:57:39.961Z,0.60
2018-01-15T07:00:09.961Z,0.40
2018-01-15T07:02:38.165Z,0.40
2018-01-15T07:05:06.391Z,0.30
2018-01-15T07:07:34.576Z,0.20
2018-01-15T07:10:02.830Z,0.20
2018-01-15T07:12:30.997Z,0.10
2018-01-15T07:14:59.217Z,0.10
2018-01-15T07:17:27.784Z,0.00
2018-01-15T07:19:55.984Z,0.00
2018-01-15T07:22:24.145Z,0.00
2018-01-15T07:24:52.341Z,0.00
2018-01-15T07:27:21.272Z,0.00
2018-01-15T07:29:49.439Z,0.00
2018-01-15T07:32:18.683Z,0.10
2018-01-15T07:34:46.844Z,0.10
2018-01-15T07:37:15.022Z,0.10
2018-01-15T07:39:43.403Z,0.10
2018-01-15T07:42:12.371Z,0.10
2018-01-15T07:44:40.563Z,0.10
2018-01-15T07:47:08.810Z,0.20
2018-01-15T07:49:36.986Z,0.20
2018-01-15T07:52:06.436Z,0.30
2018-01-15T07:54:37.331Z,0.40
2018-01-15T07:57:06.427Z,0.40
2018-01-15T07:59:35.214Z,0.40
2018-01-15T08:02:03.383Z,0.40
2018-01-15T08:04:31.613Z,0.40
2018-01-15T08:06:59.893Z,0.30
2018-01-15T08:09:28.465Z,0.40
2018-01-15T08:11:56.674Z,0.30
2018-01-15T08:14:26.564Z,0.30
2018-01-15T08:16:55.680Z,0.30
2018-01-15T08:19:23.927Z,0.30
2018-01-15T08:21:56.081Z,0.30
2018-01-15T08:24:25.642Z,0.30
2018-01-15T08:26:53.843Z,0.30
2018-01-15T08:29:23.007Z,0.30
2018-01-15T08:31:53.652Z,0.50
2018-01-15T08:34:21.844Z,0.60
2018-01-15T08:36:50.359Z,0.70
2018-01-15T08:39:19.174Z,0.80
2018-01-15T08:44:59.789Z,1.20
2018-01-15T08:47:28.386Z,1.40
2018-01-15T08:50:05.274Z,1.50
2018-01-15T08:52:33.987Z,1.70
2018-01-15T09:06:42.172Z,2.60
2018-01-15T09:09:22.799Z,2.80
2018-01-15T09:12:01.462Z,2.80
2018-01-15T09:14:29.629Z,2.90
2018-01-15T09:17:04.127Z,3.00
2018-01-15T09:19:32.511Z,3.10
2018-01-15T09:22:00.736Z,3.30
2018-01-15T09:24:28.883Z,3.40
2018-01-15T09:26:58.688Z,3.60
2018-01-15T09:29:27.395Z,3.70
2018-01-15T09:31:57.170Z,3.70
2018-01-15T09:34:25.375Z,3.70
2018-01-15T09:36:54.294Z,3.80
2018-01-15T09:39:22.446Z,3.70
2018-01-15T09:41:52.389Z,3.80
2018-01-15T09:44:20.550Z,3.70
2018-01-15T09:46:48.723Z,3.90
2018-01-15T09:49:17.839Z,4.00
2018-01-15T09:51:46.352Z,4.10
2018-01-15T09:54:14.522Z,4.20
2018-01-15T09:56:42.673Z,4.40
2018-01-15T09:59:12.285Z,4.50
2018-01-15T10:01:40.453Z,4.60
2018-01-15T10:04:09.477Z,4.60
2018-01-15T10:06:37.629Z,4.60
2018-01-15T10:09:05.810Z,4.70
2018-01-15T10:11:33.983Z,4.80
2018-01-15T10:14:03.926Z,4.70
2018-01-15T10:16:34.499Z,4.70
2018-01-15T10:19:04.004Z,4.60
2018-01-15T10:21:42.092Z,4.60
2018-01-15T10:24:12.918Z,4.50
2018-01-15T10:26:41.132Z,4.50
2018-01-15T10:29:09.948Z,4.50
2018-01-15T10:31:41.130Z,4.70
2018-01-15T10:34:09.513Z,4.80
2018-01-15T10:36:40.194Z,4.80
2018-01-15T10:39:09.593Z,4.80
2018-01-15T10:41:39.502Z,4.90
2018-01-15T10:44:09.945Z,4.90
2018-01-15T10:46:39.968Z,5.10
2018-01-15T10:49:10.735Z,5.10
2018-01-15T10:51:39.747Z,5.10
2018-01-15T10:54:08.558Z,5.20
2018-01-15T10:56:37.192Z,5.30
2018-01-15T10:59:07.829Z,5.00
2018-01-15T11:01:43.977Z,5.00
2018-01-15T11:04:13.842Z,5.10
2018-01-15T11:06:43.051Z,5.10
2018-01-15T11:09:15.321Z,5.20
2018-01-15T11:11:49.304Z,5.30
2018-01-15T11:14:18.843Z,5.30
2018-01-15T11:16:49.368Z,5.50
2018-01-15T11:19:17.798Z,5.40
2018-01-15T11:21:56.022Z,5.40
2018-01-15T11:24:26.656Z,5.40
2018-01-15T11:26:58.536Z,5.40
2018-01-15T11:29:26.732Z,5.20
2018-01-15T11:31:55.652Z,5.30
2018-01-15T11:34:24.386Z,5.40
2018-01-15T11:36:53.370Z,5.30
2018-01-15T11:39:23.092Z,5.30
2018-01-15T11:41:52.171Z,5.30
2018-01-15T11:44:28.054Z,5.40
2018-01-15T11:46:58.341Z,5.30
2018-01-15T11:49:26.557Z,5.50
2018-01-15T11:51:54.749Z,5.70
2018-01-15T11:54:22.914Z,5.70
2018-01-15T11:56:51.072Z,5.70
2018-01-15T11:59:19.215Z,5.80
2018-01-15T12:01:48.386Z,5.70
2018-01-15T12:04:16.558Z,5.80
2018-01-15T12:06:45.641Z,5.60
2018-01-15T12:09:13.831Z,5.50
2018-01-15T12:11:48.377Z,5.50
2018-01-15T12:14:20.459Z,5.60
2018-01-15T12:16:48.609Z,5.70
2018-01-15T12:19:16.815Z,5.80
2018-01-15T12:21:48.576Z,5.90
2018-01-15T12:24:16.793Z,5.80
2018-01-15T12:26:45.513Z,5.70
2018-01-15T12:29:14.447Z,6.00
2018-01-15T12:31:43.744Z,6.00
2018-01-15T12:34:11.896Z,5.80
2018-01-15T12:36:40.074Z,5.80
2018-01-15T12:39:08.229Z,5.90
2018-01-15T12:41:37.240Z,6.00
2018-01-15T12:44:05.415Z,6.00
2018-01-15T12:46:34.332Z,6.00
2018-01-15T12:49:02.527Z,6.00
2018-01-15T12:51:30.774Z,5.90
2018-01-15T12:53:58.950Z,5.90
2018-01-15T12:56:28.313Z,5.60
2018-01-15T12:58:56.466Z,5.60
2018-01-15T13:01:24.685Z,5.70
2018-01-15T13:03:53.101Z,5.80
2018-01-15T13:06:21.253Z,5.80
2018-01-15T13:09:08.942Z,5.90
2018-01-15T13:11:37.095Z,6.00
2018-01-15T13:14:05.260Z,6.00
2018-01-15T13:16:33.413Z,6.00
2018-01-15T13:19:02.280Z,6.10
2018-01-15T13:21:30.561Z,6.00
2018-01-15T13:23:58.801Z,6.10
2018-01-15T13:26:26.967Z,5.90
2018-01-15T13:28:55.148Z,6.10
2018-01-15T13:31:30.194Z,6.20
2018-01-15T13:34:02.081Z,6.20
2018-01-15T13:36:30.235Z,6.40
2018-01-15T13:38:59.232Z,6.60
2018-01-15T13:41:27.509Z,6.50
2018-01-15T13:43:55.660Z,6.70
2018-01-15T13:46:23.817Z,6.70
2018-01-15T13:48:51.968Z,6.70
2018-01-15T13:51:20.214Z,6.80
2018-01-15T13:53:48.394Z,6.90
2018-01-15T13:56:16.562Z,6.90
2018-01-15T13:58:45.483Z,7.10
2018-01-15T14:01:13.758Z,7.00
2018-01-15T14:03:41.912Z,7.00
2018-01-15T14:06:10.058Z,7.00
2018-01-15T14:08:38.226Z,7.10
2018-01-15T14:11:06.429Z,7.00
2018-01-15T14:13:34.588Z,6.90
2018-01-15T14:16:03.517Z,6.80
2018-01-15T14:18:31.686Z,6.80
2018-01-15T14:20:59.994Z,6.70
2018-01-15T14:23:28.216Z,6.70
2018-01-15T14:25:56.361Z,6.70
2018-01-15T14:28:24.522Z,6.70
2018-01-15T14:30:59.518Z,6.60
2018-01-15T14:33:28.562Z,6.40
2018-01-15T14:35:56.721Z,6.40
2018-01-15T14:38:24.864Z,6.40
2018-01-15T14:40:53.123Z,6.40
2018-01-15T14:43:21.285Z,6.30
2018-01-15T14:45:49.503Z,6.30
2018-01-15T14:48:17.677Z,6.30
2018-01-15T14:50:53.457Z,6.20
2018-01-15T14:53:21.676Z,6.20
2018-01-15T14:55:49.835Z,6.20
2018-01-15T14:58:18.761Z,6.10
2018-01-15T15:00:48.956Z,6.10
2018-01-15T15:03:17.123Z,6.00
2018-01-15T15:05:45.284Z,6.00
2018-01-15T15:08:13.429Z,6.00
2018-01-15T15:10:41.648Z,5.90
2018-01-15T15:13:09.809Z,5.90
2018-01-15T15:15:38.757Z,5.80
2018-01-15T15:18:06.901Z,5.80
2018-01-15T15:20:35.177Z,5.80
2018-01-15T15:23:03.328Z,5.80
2018-01-15T15:25:32.250Z,5.60
2018-01-15T15:28:00.393Z,5.60
2018-01-15T15:30:35.303Z,5.60
2018-01-15T15:33:03.475Z,5.50
2018-01-15T15:35:35.146Z,5.50
2018-01-15T15:38:04.077Z,5.40
2018-01-15T15:40:32.364Z,5.40
2018-01-15T15:43:00.558Z,5.40
2018-01-15T15:45:30.191Z,5.30
2018-01-15T15:47:58.352Z,5.30
2018-01-15T15:50:27.155Z,5.20
2018-01-15T15:52:56.089Z,5.20
2018-01-15T15:55:25.220Z,5.10
2018-01-15T15:57:53.425Z,5.20
2018-01-15T16:00:22.546Z,5.20
2018-01-15T16:02:50.873Z,5.20
2018-01-15T16:05:19.732Z,5.10
2018-01-15T16:07:47.899Z,5.00
2018-01-15T16:10:24.157Z,4.90
2018-01-15T16:12:52.340Z,4.80
2018-01-15T16:15:21.252Z,4.60
2018-01-15T16:17:49.461Z,4.50
2018-01-15T16:20:17.996Z,4.50
2018-01-15T16:22:59.509Z,4.40
2018-01-15T16:25:28.562Z,4.30
2018-01-15T16:27:57.612Z,4.30
2018-01-15T16:30:26.412Z,4.20
2018-01-15T16:32:55.338Z,4.10
2018-01-15T16:35:24.618Z,4.10
2018-01-15T16:37:53.075Z,4.10
2018-01-15T16:40:23.310Z,4.00
2018-01-15T16:42:52.148Z,4.00
2018-01-15T16:45:22.792Z,4.00
2018-01-15T16:47:51.203Z,4.00
2018-01-15T16:50:26.952Z,4.20
2018-01-15T16:52:55.184Z,4.10
2018-01-15T16:55:24.025Z,4.20
2018-01-15T16:57:52.174Z,4.20
2018-01-15T17:00:23.317Z,4.30
2018-01-15T17:02:51.531Z,4.30
2018-01-15T17:05:22.518Z,4.40
2018-01-15T17:07:51.284Z,4.50
2018-01-15T17:10:22.009Z,4.50
2018-01-15T17:12:50.958Z,4.50
2018-01-15T17:15:20.603Z,4.60
2018-01-15T17:17:48.848Z,4.60
2018-01-15T17:20:18.457Z,4.60
2018-01-15T17:22:47.393Z,4.50
2018-01-15T17:25:17.044Z,4.50
2018-01-15T17:27:46.014Z,4.50
2018-01-15T17:30:16.932Z,4.40
2018-01-15T17:32:45.419Z,4.40
2018-01-15T17:35:14.778Z,4.40
2018-01-15T17:37:43.161Z,4.40
2018-01-15T17:40:13.106Z,4.30
2018-01-15T17:42:41.276Z,4.20
2018-01-15T17:45:11.678Z,4.20
2018-01-15T17:47:40.154Z,4.10
2018-01-15T17:50:17.171Z,4.20
2018-01-15T17:52:45.921Z,4.20
2018-01-15T17:55:18.158Z,4.30
2018-01-15T17:57:47.400Z,4.30
2018-01-15T18:00:17.402Z,4.40
2018-01-15T18:02:46.877Z,4.30
2018-01-15T18:05:16.533Z,4.40
2018-01-15T18:07:45.712Z,4.40
2018-01-15T18:10:20.896Z,4.40
2018-01-15T18:12:50.233Z,4.40
2018-01-15T18:15:22.738Z,4.40
2018-01-15T18:17:51.793Z,4.50
2018-01-15T18:20:20.039Z,4.50
2018-01-15T18:22:48.294Z,4.50
2018-01-15T18:25:18.398Z,4.50
2018-01-15T18:27:46.780Z,4.50
2018-01-15T18:30:22.116Z,4.60
2018-01-15T18:32:50.535Z,4.60
2018-01-15T18:35:18.766Z,4.70
2018-01-15T18:37:48.218Z,4.70
2018-01-15T18:40:17.454Z,4.80
2018-01-15T18:42:46.428Z,4.90
2018-01-15T18:45:14.612Z,5.00
2018-01-15T18:47:43.456Z,5.10
2018-01-15T18:50:11.649Z,5.10
2018-01-15T18:52:40.042Z,5.20
2018-01-15T18:55:12.356Z,5.20
2018-01-15T18:57:41.858Z,5.20
2018-01-15T19:00:10.283Z,5.30
2018-01-15T19:02:38.883Z,5.30
2018-01-15T19:05:07.425Z,5.30
2018-01-15T19:07:37.269Z,5.30
2018-01-15T19:10:05.629Z,5.30
2018-01-15T19:12:37.196Z,5.30
2018-01-15T19:15:07.338Z,5.30
2018-01-15T19:17:36.500Z,5.20
2018-01-15T19:20:07.289Z,5.20
2018-01-15T19:22:35.550Z,5.20
2018-01-15T19:25:06.516Z,5.10
2018-01-15T19:27:34.914Z,5.10
2018-01-15T19:30:03.694Z,5.10
2018-01-15T19:32:32.773Z,5.10
2018-01-15T19:35:14.621Z,4.90
2018-01-15T19:37:46.840Z,5.00
2018-01-15T19:40:22.106Z,4.90
2018-01-15T19:43:10.734Z,4.90
2018-01-15T19:45:44.542Z,4.90
2018-01-15T19:48:18.634Z,4.90
2018-01-15T19:50:54.028Z,4.90
2018-01-15T19:53:28.532Z,4.90
2018-01-15T19:56:03.994Z,5.00
2018-01-15T19:58:37.985Z,4.90
2018-01-15T20:01:12.988Z,4.90
2018-01-15T20:03:50.774Z,4.90
2018-01-15T20:06:26.216Z,4.90
2018-01-15T20:09:00.489Z,4.90
2018-01-15T20:11:29.425Z,4.80
2018-01-15T20:13:58.110Z,4.80
2018-01-15T20:16:26.262Z,4.90
2018-01-15T20:18:55.746Z,4.90
2018-01-15T20:21:25.957Z,4.80
2018-01-15T20:26:38.509Z,4.80
2018-01-15T20:29:10.039Z,4.80
2018-01-15T20:31:38.989Z,4.90
2018-01-15T20:34:07.161Z,4.80
2018-01-15T20:36:35.368Z,4.90
2018-01-15T20:39:03.516Z,4.80
2018-01-15T20:41:36.402Z,4.80
2018-01-15T20:44:05.038Z,4.80
2018-01-15T20:46:33.496Z,4.90
2018-01-15T20:49:02.615Z,4.80
2018-01-15T20:51:30.907Z,4.80
2018-01-15T20:54:00.311Z,4.80
2018-01-15T20:56:28.472Z,4.80
2018-01-15T20:58:56.680Z,4.90
2018-01-15T21:01:29.326Z,4.90
2018-01-15T21:03:57.612Z,4.90
2018-01-15T21:06:27.707Z,4.90
2018-01-15T21:08:55.904Z,4.90
2018-01-15T21:11:24.145Z,4.90
2018-01-15T21:13:53.444Z,4.80
2018-01-15T21:16:21.660Z,4.90
2018-01-15T21:18:49.815Z,4.90
2018-01-15T21:21:35.935Z,4.90
2018-01-15T21:24:04.481Z,4.80
2018-01-15T21:26:32.651Z,4.90
2018-01-15T21:29:00.905Z,4.90
2018-01-15T21:31:29.944Z,4.90
2018-01-15T21:33:59.418Z,4.90
2018-01-15T21:36:28.950Z,5.00
2018-01-15T21:38:57.208Z,5.00
2018-01-15T21:41:28.193Z,5.00
2018-01-15T21:43:56.488Z,5.00
2018-01-15T21:46:27.055Z,5.00
2018-01-15T21:48:56.964Z,5.00
2018-01-15T21:51:25.173Z,5.00
2018-01-15T21:53:53.326Z,5.00
2018-01-15T21:56:22.342Z,5.10
2018-01-15T21:58:50.509Z,5.10
2018-01-15T22:01:20.585Z,5.10
2018-01-15T22:03:48.765Z,5.10
2018-01-15T22:06:16.922Z,5.10
2018-01-15T22:08:45.073Z,5.20
2018-01-15T22:11:14.076Z,5.10
2018-01-15T22:13:42.235Z,5.10
2018-01-15T22:16:10.403Z,5.10
2018-01-15T22:18:38.627Z,5.20
2018-01-15T22:21:06.785Z,5.20
2018-01-15T22:23:34.968Z,5.20
2018-01-15T22:26:03.130Z,5.10
2018-01-15T22:28:31.351Z,5.10
2018-01-15T22:30:59.649Z,5.10
2018-01-15T22:33:27.883Z,5.10
2018-01-15T22:35:56.670Z,5.10
2018-01-15T22:38:24.921Z,5.20
2018-01-15T22:40:53.184Z,5.20
2018-01-15T22:43:21.387Z,5.20
2018-01-15T22:45:49.575Z,5.30
2018-01-15T22:48:18.391Z,5.20
2018-01-15T22:50:46.678Z,5.30
2018-01-15T22:53:14.889Z,5.30
2018-01-15T22:55:43.316Z,5.40
2018-01-15T22:58:11.534Z,5.40
2018-01-15T23:00:40.707Z,5.40
2018-01-15T23:03:09.054Z,5.40
2018-01-15T23:05:37.995Z,5.40
2018-01-15T23:08:06.162Z,5.40
2018-01-15T23:10:40.944Z,5.40
2018-01-15T23:13:09.119Z,5.40
2018-01-15T23:15:44.335Z,5.40
2018-01-15T23:18:13.786Z,5.50
2018-01-15T23:20:43.013Z,5.50
2018-01-15T23:23:11.232Z,5.50
2018-01-15T23:25:39.477Z,5.50
2018-01-15T23:28:07.628Z,5.50
2018-01-15T23:30:42.539Z,5.50
2018-01-15T23:33:11.454Z,5.50
2018-01-15T23:35:39.698Z,5.50
2018-01-15T23:38:09.016Z,5.60
2018-01-15T23:40:38.032Z,5.60
2018-01-15T23:43:06.286Z,5.50
2018-01-15T23:45:34.477Z,5.60
2018-01-15T23:48:02.640Z,5.60
2018-01-15T23:50:32.386Z,5.70
2018-01-15T23:53:00.544Z,5.70
2018-01-15T23:55:28.729Z,5.70
2018-01-15T23:57:56.912Z,5.60
